Hinze Dam Nerang River, Queensland

7:21 AM AEST on September 22, 2014 (GMT +1000)
Worongary | Change Station
CLOSE
Current Station
Personal Weather Station
Location: Worongary, QUEENSLAND
Elevation: 72 ft
Nearby Weather Stations

Elev 72 ft 28.03 °S, 153.34 °E | Updated 3 seconds ago

Clear
Clear
61.9 °F
Feels Like 61.9 °F
N
3.1
Wind Variable Wind from North
Gusts 3.1 mph

Today
High -- | Low -- °F
--% Chance of Precip.
Yesterday
High -- | Low -- °F
Precip. -- in
5:37 AM 5:42 PM
Waning Crescent, 5% visible
Pressure 30.36 in
Visibility 6.2 miles
Clouds
Dew Point 58 °F
Humidity 86%
Rainfall 0.07 in
Snow Depth Not available.
UV Not available.
Pollen Not available.
Air Quality Not available.
Flu Activity Not available.
METAR YBCG 212100Z AUTO 19008KT 9999 // NCD 16/13 Q1028

More Conditions Fewer Conditions

Pressure 30.36 in
Visibility 6.2 miles
Clouds
Dew Point 58 °F
Humidity 86%
Rainfall 0.07 in
Snow Depth Not available.
UV Not available.
Pollen Not available.
Air Quality Not available.
Flu Activity Not available.
METAR YBCG 212100Z AUTO 19008KT 9999 // NCD 16/13 Q1028

More Conditions Fewer Conditions

10-Day Weather Forecast

Almanac

Astronomy

Sep. 22, 2014 Rise Set
Actual Time 5:37 AM AEST 5:42 PM AEST
Civil Twilight 5:13 AM AEST 6:06 PM AEST
Nautical Twilight 4:46 AM AEST 6:33 PM AEST
Astronomical Twilight 4:19 AM AEST 7:01 PM AEST
Moon 4:07 AM AEST (9/22) 3:59 PM AEST (9/22)
Length of Visible Light 12h 52m
Length of Day
12h 05m
Tomorrow will be 1m 39s longer.
Waning Crescent, 5% of the Moon is Illuminated
Sep 21
Waning Crescent
Sep 24
New
Oct 1
First Quarter
Oct 8
Full
Oct 15
Last Quarter

Yesterday's Extremes

Country Highs Country Lows

Community

WunderPhotos

Upload Photos

1,755,264 photos uploaded!

Nearby

Snow Depth

Not available.

Earthquake Activity

City Distance Mag. Time & Date
No recent earthquake activity has been reported nearby.
Minimum magnitude displayed is 2.5.

Coastal Water Temperatures

Place Temperature
No Stations Reporting

Nearby Weather Stations